sensor_id;sensor_type;location;lat;lon;timestamp;P1;durP1;ratioP1;P2;durP2;ratioP2
20884;SDS011;10602;48.000;9.654;2024-01-11T06:03:15;28.40;;;12.57;;
20884;SDS011;10602;48.000;9.654;2024-01-11T06:05:43;28.70;;;12.60;;
20884;SDS011;10602;48.000;9.654;2024-01-11T06:08:12;31.33;;;13.90;;
20884;SDS011;10602;48.000;9.654;2024-01-11T06:13:10;30.67;;;12.67;;
20884;SDS011;10602;48.000;9.654;2024-01-11T06:15:40;32.17;;;12.33;;
20884;SDS011;10602;48.000;9.654;2024-01-11T06:18:08;33.00;;;14.47;;
20884;SDS011;10602;48.000;9.654;2024-01-11T06:20:35;33.73;;;14.67;;
20884;SDS011;10602;48.000;9.654;2024-01-11T06:23:03;31.90;;;13.77;;
20884;SDS011;10602;48.000;9.654;2024-01-11T06:25:37;30.40;;;14.87;;
20884;SDS011;10602;48.000;9.654;2024-01-11T06:28:05;29.27;;;13.87;;
20884;SDS011;10602;48.000;9.654;2024-01-11T06:30:34;29.00;;;12.73;;
20884;SDS011;10602;48.000;9.654;2024-01-11T06:33:01;27.67;;;12.97;;
20884;SDS011;10602;48.000;9.654;2024-01-11T06:35:29;27.83;;;12.83;;
20884;SDS011;10602;48.000;9.654;2024-01-11T06:37:57;27.02;;;12.18;;
20884;SDS011;10602;48.000;9.654;2024-01-11T06:40:25;30.15;;;13.18;;
20884;SDS011;10602;48.000;9.654;2024-01-11T06:42:53;27.90;;;12.57;;
20884;SDS011;10602;48.000;9.654;2024-01-11T06:45:20;32.20;;;13.27;;
20884;SDS011;10602;48.000;9.654;2024-01-11T06:47:48;26.63;;;13.50;;
20884;SDS011;10602;48.000;9.654;2024-01-11T06:50:16;30.77;;;13.27;;
20884;SDS011;10602;48.000;9.654;2024-01-11T06:52:44;28.43;;;12.97;;
20884;SDS011;10602;48.000;9.654;2024-01-11T06:55:11;29.77;;;13.10;;
20884;SDS011;10602;48.000;9.654;2024-01-11T06:57:38;32.30;;;12.67;;
20884;SDS011;10602;48.000;9.654;2024-01-11T07:00:07;27.80;;;12.40;;
20884;SDS011;10602;48.000;9.654;2024-01-11T07:02:35;27.80;;;12.13;;
20884;SDS011;10602;48.000;9.654;2024-01-11T07:05:03;31.67;;;13.47;;
20884;SDS011;10602;48.000;9.654;2024-01-11T07:07:31;26.50;;;11.63;;
20884;SDS011;10602;48.000;9.654;2024-01-11T07:09:59;31.10;;;13.83;;
20884;SDS011;10602;48.000;9.654;2024-01-11T07:12:27;29.60;;;12.93;;
20884;SDS011;10602;48.000;9.654;2024-01-11T07:14:57;31.83;;;14.07;;
20884;SDS011;10602;48.000;9.654;2024-01-11T07:17:26;27.90;;;12.73;;
20884;SDS011;10602;48.000;9.654;2024-01-11T07:19:54;26.73;;;11.38;;
20884;SDS011;10602;48.000;9.654;2024-01-11T07:22:24;47.63;;;20.60;;
20884;SDS011;10602;48.000;9.654;2024-01-11T07:24:51;29.90;;;12.53;;
20884;SDS011;10602;48.000;9.654;2024-01-11T07:27:20;29.17;;;13.10;;
20884;SDS011;10602;48.000;9.654;2024-01-11T07:29:49;29.93;;;13.23;;
20884;SDS011;10602;48.000;9.654;2024-01-11T07:32:18;28.77;;;12.77;;
20884;SDS011;10602;48.000;9.654;2024-01-11T07:34:45;24.57;;;11.20;;
20884;SDS011;10602;48.000;9.654;2024-01-11T07:37:12;22.27;;;10.65;;
20884;SDS011;10602;48.000;9.654;2024-01-11T07:39:40;25.03;;;11.70;;
20884;SDS011;10602;48.000;9.654;2024-01-11T07:42:09;22.60;;;11.00;;
20884;SDS011;10602;48.000;9.654;2024-01-11T07:44:37;20.63;;;9.40;;
20884;SDS011;10602;48.000;9.654;2024-01-11T07:47:06;23.17;;;9.90;;
20884;SDS011;10602;48.000;9.654;2024-01-11T07:49:34;21.37;;;10.43;;
20884;SDS011;10602;48.000;9.654;2024-01-11T07:52:01;24.07;;;10.47;;
20884;SDS011;10602;48.000;9.654;2024-01-11T07:54:28;22.43;;;9.87;;
20884;SDS011;10602;48.000;9.654;2024-01-11T07:56:58;23.60;;;11.30;;
20884;SDS011;10602;48.000;9.654;2024-01-11T07:59:25;24.07;;;9.97;;
20884;SDS011;10602;48.000;9.654;2024-01-11T08:01:54;25.10;;;10.03;;
20884;SDS011;10602;48.000;9.654;2024-01-11T08:04:22;20.95;;;10.68;;
20884;SDS011;10602;48.000;9.654;2024-01-11T08:06:49;19.67;;;9.37;;
20884;SDS011;10602;48.000;9.654;2024-01-11T08:09:18;17.20;;;9.13;;
20884;SDS011;10602;48.000;9.654;2024-01-11T08:11:46;21.07;;;9.73;;
20884;SDS011;10602;48.000;9.654;2024-01-11T08:14:14;21.03;;;9.77;;
20884;SDS011;10602;48.000;9.654;2024-01-11T08:16:43;21.43;;;9.70;;
20884;SDS011;10602;48.000;9.654;2024-01-11T08:19:13;23.50;;;10.00;;
20884;SDS011;10602;48.000;9.654;2024-01-11T08:21:41;22.15;;;9.80;;
20884;SDS011;10602;48.000;9.654;2024-01-11T08:24:12;25.20;;;9.80;;
20884;SDS011;10602;48.000;9.654;2024-01-11T08:26:45;23.37;;;10.40;;
20884;SDS011;10602;48.000;9.654;2024-01-11T08:29:16;21.57;;;10.80;;
20884;SDS011;10602;48.000;9.654;2024-01-11T08:31:48;22.33;;;10.70;;
20884;SDS011;10602;48.000;9.654;2024-01-11T08:34:21;23.47;;;10.67;;
20884;SDS011;10602;48.000;9.654;2024-01-11T08:36:52;23.77;;;10.27;;
20884;SDS011;10602;48.000;9.654;2024-01-11T08:39:30;20.87;;;9.77;;
20884;SDS011;10602;48.000;9.654;2024-01-11T08:42:09;24.90;;;11.43;;
20884;SDS011;10602;48.000;9.654;2024-01-11T08:44:40;19.90;;;8.87;;
20884;SDS011;10602;48.000;9.654;2024-01-11T08:47:06;24.13;;;10.80;;
20884;SDS011;10602;48.000;9.654;2024-01-11T08:49:36;21.53;;;9.83;;
20884;SDS011;10602;48.000;9.654;2024-01-11T08:52:05;21.50;;;9.80;;
20884;SDS011;10602;48.000;9.654;2024-01-11T08:54:33;26.53;;;10.70;;
20884;SDS011;10602;48.000;9.654;2024-01-11T08:57:02;23.50;;;10.13;;
20884;SDS011;10602;48.000;9.654;2024-01-11T08:59:30;20.47;;;10.07;;
20884;SDS011;10602;48.000;9.654;2024-01-11T09:02:00;19.90;;;10.30;;
20884;SDS011;10602;48.000;9.654;2024-01-11T09:04:31;26.87;;;10.83;;
20884;SDS011;10602;48.000;9.654;2024-01-11T09:07:00;23.17;;;10.60;;
20884;SDS011;10602;48.000;9.654;2024-01-11T09:09:28;24.50;;;11.57;;
20884;SDS011;10602;48.000;9.654;2024-01-11T09:11:56;22.37;;;11.13;;
20884;SDS011;10602;48.000;9.654;2024-01-11T09:14:24;21.17;;;10.37;;
20884;SDS011;10602;48.000;9.654;2024-01-11T09:16:52;25.53;;;11.53;;
20884;SDS011;10602;48.000;9.654;2024-01-11T09:19:22;23.83;;;11.60;;
20884;SDS011;10602;48.000;9.654;2024-01-11T09:21:51;24.13;;;10.90;;
20884;SDS011;10602;48.000;9.654;2024-01-11T09:24:19;26.37;;;11.50;;
20884;SDS011;10602;48.000;9.654;2024-01-11T09:26:48;27.67;;;11.30;;
20884;SDS011;10602;48.000;9.654;2024-01-11T09:29:17;25.10;;;11.83;;
20884;SDS011;10602;48.000;9.654;2024-01-11T09:31:45;27.80;;;13.43;;
20884;SDS011;10602;48.000;9.654;2024-01-11T09:34:14;25.97;;;11.97;;
20884;SDS011;10602;48.000;9.654;2024-01-11T09:36:42;27.23;;;11.73;;
20884;SDS011;10602;48.000;9.654;2024-01-11T09:39:10;25.90;;;11.57;;
20884;SDS011;10602;48.000;9.654;2024-01-11T09:41:41;32.00;;;13.67;;
20884;SDS011;10602;48.000;9.654;2024-01-11T09:44:10;29.23;;;11.73;;
20884;SDS011;10602;48.000;9.654;2024-01-11T09:46:38;29.00;;;12.80;;
20884;SDS011;10602;48.000;9.654;2024-01-11T09:49:06;29.50;;;12.73;;
20884;SDS011;10602;48.000;9.654;2024-01-11T09:51:39;31.60;;;13.10;;
20884;SDS011;10602;48.000;9.654;2024-01-11T09:54:06;27.13;;;12.13;;
20884;SDS011;10602;48.000;9.654;2024-01-11T09:56:36;31.37;;;13.50;;
20884;SDS011;10602;48.000;9.654;2024-01-11T09:59:05;30.23;;;13.73;;
20884;SDS011;10602;48.000;9.654;2024-01-11T10:01:37;33.23;;;14.07;;
20884;SDS011;10602;48.000;9.654;2024-01-11T10:04:05;33.73;;;12.90;;
20884;SDS011;10602;48.000;9.654;2024-01-11T10:06:32;36.13;;;14.00;;
20884;SDS011;10602;48.000;9.654;2024-01-11T10:09:02;35.77;;;14.50;;
20884;SDS011;10602;48.000;9.654;2024-01-11T10:11:31;32.20;;;13.97;;
20884;SDS011;10602;48.000;9.654;2024-01-11T10:14:00;34.20;;;14.00;;
20884;SDS011;10602;48.000;9.654;2024-01-11T10:16:28;34.40;;;14.33;;
20884;SDS011;10602;48.000;9.654;2024-01-11T10:18:58;37.10;;;15.53;;
20884;SDS011;10602;48.000;9.654;2024-01-11T10:21:26;38.50;;;16.17;;
20884;SDS011;10602;48.000;9.654;2024-01-11T10:23:55;30.03;;;13.57;;
20884;SDS011;10602;48.000;9.654;2024-01-11T10:26:25;37.30;;;14.03;;
20884;SDS011;10602;48.000;9.654;2024-01-11T10:28:53;41.17;;;15.43;;
20884;SDS011;10602;48.000;9.654;2024-01-11T10:31:22;35.57;;;15.67;;
20884;SDS011;10602;48.000;9.654;2024-01-11T10:33:51;39.23;;;14.67;;
20884;SDS011;10602;48.000;9.654;2024-01-11T10:36:18;39.73;;;15.80;;
20884;SDS011;10602;48.000;9.654;2024-01-11T10:38:46;42.77;;;16.63;;
20884;SDS011;10602;48.000;9.654;2024-01-11T10:41:14;36.53;;;16.07;;
20884;SDS011;10602;48.000;9.654;2024-01-11T10:43:45;33.73;;;15.50;;
20884;SDS011;10602;48.000;9.654;2024-01-11T10:46:15;40.67;;;14.97;;
20884;SDS011;10602;48.000;9.654;2024-01-11T10:48:47;38.80;;;16.50;;
20884;SDS011;10602;48.000;9.654;2024-01-11T10:51:18;35.93;;;16.13;;
20884;SDS011;10602;48.000;9.654;2024-01-11T10:53:49;43.37;;;16.83;;
20884;SDS011;10602;48.000;9.654;2024-01-11T10:56:17;45.37;;;18.07;;
20884;SDS011;10602;48.000;9.654;2024-01-11T10:58:47;41.90;;;20.00;;
20884;SDS011;10602;48.000;9.654;2024-01-11T11:01:15;42.07;;;16.87;;
20884;SDS011;10602;48.000;9.654;2024-01-11T11:03:44;45.37;;;19.53;;
20884;SDS011;10602;48.000;9.654;2024-01-11T11:06:13;46.50;;;18.80;;
20884;SDS011;10602;48.000;9.654;2024-01-11T11:08:42;53.17;;;21.00;;
20884;SDS011;10602;48.000;9.654;2024-01-11T11:11:11;49.23;;;21.23;;
20884;SDS011;10602;48.000;9.654;2024-01-11T11:13:39;50.80;;;20.97;;
20884;SDS011;10602;48.000;9.654;2024-01-11T11:16:09;57.40;;;22.73;;
20884;SDS011;10602;48.000;9.654;2024-01-11T11:18:36;51.27;;;22.90;;
20884;SDS011;10602;48.000;9.654;2024-01-11T11:21:13;50.03;;;21.23;;
20884;SDS011;10602;48.000;9.654;2024-01-11T11:23:39;52.53;;;21.07;;
20884;SDS011;10602;48.000;9.654;2024-01-11T11:26:06;54.30;;;23.13;;
20884;SDS011;10602;48.000;9.654;2024-01-11T11:28:36;54.47;;;22.20;;
20884;SDS011;10602;48.000;9.654;2024-01-11T11:31:03;52.13;;;20.80;;
20884;SDS011;10602;48.000;9.654;2024-01-11T11:33:31;46.83;;;20.20;;
20884;SDS011;10602;48.000;9.654;2024-01-11T11:35:58;51.13;;;21.47;;
20884;SDS011;10602;48.000;9.654;2024-01-11T11:38:27;47.43;;;20.40;;
20884;SDS011;10602;48.000;9.654;2024-01-11T11:40:56;49.87;;;23.00;;
20884;SDS011;10602;48.000;9.654;2024-01-11T11:43:31;51.83;;;21.63;;
20884;SDS011;10602;48.000;9.654;2024-01-11T11:46:00;52.47;;;21.70;;
20884;SDS011;10602;48.000;9.654;2024-01-11T11:51:22;51.30;;;21.90;;
20884;SDS011;10602;48.000;9.654;2024-01-11T11:53:34;48.57;;;19.77;;
20884;SDS011;10602;48.000;9.654;2024-01-11T11:56:04;41.87;;;18.33;;
20884;SDS011;10602;48.000;9.654;2024-01-11T11:58:32;44.63;;;18.97;;
20884;SDS011;10602;48.000;9.654;2024-01-11T12:01:01;43.70;;;19.13;;
20884;SDS011;10602;48.000;9.654;2024-01-11T12:03:30;48.73;;;19.93;;
20884;SDS011;10602;48.000;9.654;2024-01-11T12:06:04;46.23;;;18.53;;
20884;SDS011;10602;48.000;9.654;2024-01-11T12:08:34;43.27;;;18.13;;
20884;SDS011;10602;48.000;9.654;2024-01-11T12:11:06;48.63;;;20.53;;
20884;SDS011;10602;48.000;9.654;2024-01-11T12:13:32;43.37;;;19.63;;
20884;SDS011;10602;48.000;9.654;2024-01-11T12:16:01;47.13;;;21.77;;
20884;SDS011;10602;48.000;9.654;2024-01-11T12:19:02;40.63;;;18.83;;
20884;SDS011;10602;48.000;9.654;2024-01-11T12:21:42;48.63;;;20.90;;
20884;SDS011;10602;48.000;9.654;2024-01-11T12:24:20;43.60;;;20.97;;
20884;SDS011;10602;48.000;9.654;2024-01-11T12:27:05;45.43;;;19.90;;
20884;SDS011;10602;48.000;9.654;2024-01-11T12:32:19;51.60;;;20.50;;
20884;SDS011;10602;48.000;9.654;2024-01-11T12:35:00;46.53;;;20.53;;
20884;SDS011;10602;48.000;9.654;2024-01-11T12:37:32;50.77;;;21.80;;
20884;SDS011;10602;48.000;9.654;2024-01-11T12:40:13;40.30;;;19.50;;
20884;SDS011;10602;48.000;9.654;2024-01-11T12:42:43;50.10;;;22.07;;
20884;SDS011;10602;48.000;9.654;2024-01-11T12:45:35;44.03;;;19.03;;
20884;SDS011;10602;48.000;9.654;2024-01-11T12:48:28;41.73;;;18.63;;
20884;SDS011;10602;48.000;9.654;2024-01-11T12:50:52;45.93;;;19.33;;
20884;SDS011;10602;48.000;9.654;2024-01-11T12:53:32;42.97;;;19.00;;
20884;SDS011;10602;48.000;9.654;2024-01-11T12:56:06;43.40;;;20.10;;
20884;SDS011;10602;48.000;9.654;2024-01-11T12:58:40;48.87;;;21.53;;
20884;SDS011;10602;48.000;9.654;2024-01-11T13:01:12;38.73;;;17.53;;
20884;SDS011;10602;48.000;9.654;2024-01-11T13:03:45;40.57;;;18.30;;
20884;SDS011;10602;48.000;9.654;2024-01-11T13:06:14;42.07;;;19.60;;
20884;SDS011;10602;48.000;9.654;2024-01-11T13:08:41;37.33;;;18.37;;
20884;SDS011;10602;48.000;9.654;2024-01-11T13:11:09;41.37;;;18.63;;
20884;SDS011;10602;48.000;9.654;2024-01-11T13:13:38;40.90;;;17.77;;
20884;SDS011;10602;48.000;9.654;2024-01-11T13:16:06;39.50;;;18.47;;
20884;SDS011;10602;48.000;9.654;2024-01-11T13:18:35;39.20;;;19.00;;
20884;SDS011;10602;48.000;9.654;2024-01-11T13:21:02;44.23;;;21.00;;
20884;SDS011;10602;48.000;9.654;2024-01-11T13:23:30;39.70;;;18.63;;
20884;SDS011;10602;48.000;9.654;2024-01-11T13:25:57;43.97;;;21.47;;
20884;SDS011;10602;48.000;9.654;2024-01-11T13:28:24;54.27;;;25.30;;
20884;SDS011;10602;48.000;9.654;2024-01-11T13:30:52;44.40;;;19.50;;
20884;SDS011;10602;48.000;9.654;2024-01-11T13:33:20;36.90;;;18.50;;
20884;SDS011;10602;48.000;9.654;2024-01-11T13:35:51;37.27;;;18.37;;
20884;SDS011;10602;48.000;9.654;2024-01-11T13:38:18;40.50;;;18.10;;
20884;SDS011;10602;48.000;9.654;2024-01-11T13:40:46;38.40;;;18.20;;
20884;SDS011;10602;48.000;9.654;2024-01-11T13:43:13;40.00;;;17.73;;
20884;SDS011;10602;48.000;9.654;2024-01-11T13:45:41;39.27;;;18.07;;
20884;SDS011;10602;48.000;9.654;2024-01-11T13:48:10;37.40;;;17.53;;
20884;SDS011;10602;48.000;9.654;2024-01-11T13:50:37;44.13;;;18.03;;
20884;SDS011;10602;48.000;9.654;2024-01-11T13:53:05;39.47;;;17.87;;
20884;SDS011;10602;48.000;9.654;2024-01-11T13:55:35;35.07;;;16.67;;
20884;SDS011;10602;48.000;9.654;2024-01-11T13:58:04;41.67;;;19.07;;
20884;SDS011;10602;48.000;9.654;2024-01-11T14:00:32;41.47;;;20.53;;
20884;SDS011;10602;48.000;9.654;2024-01-11T14:03:00;47.33;;;20.27;;
20884;SDS011;10602;48.000;9.654;2024-01-11T14:05:30;40.57;;;20.00;;
20884;SDS011;10602;48.000;9.654;2024-01-11T14:08:00;45.10;;;19.93;;
20884;SDS011;10602;48.000;9.654;2024-01-11T14:10:28;38.27;;;16.80;;
20884;SDS011;10602;48.000;9.654;2024-01-11T14:12:56;38.57;;;18.60;;
20884;SDS011;10602;48.000;9.654;2024-01-11T14:15:24;34.30;;;17.23;;
20884;SDS011;10602;48.000;9.654;2024-01-11T14:17:52;37.93;;;19.30;;
20884;SDS011;10602;48.000;9.654;2024-01-11T14:20:21;38.97;;;17.23;;
20884;SDS011;10602;48.000;9.654;2024-01-11T14:22:50;37.30;;;16.50;;
20884;SDS011;10602;48.000;9.654;2024-01-11T14:25:18;37.23;;;16.83;;
20884;SDS011;10602;48.000;9.654;2024-01-11T14:27:47;35.53;;;16.13;;
20884;SDS011;10602;48.000;9.654;2024-01-11T14:30:16;39.00;;;17.13;;
20884;SDS011;10602;48.000;9.654;2024-01-11T14:32:44;40.03;;;17.40;;
20884;SDS011;10602;48.000;9.654;2024-01-11T14:35:13;35.47;;;18.40;;
20884;SDS011;10602;48.000;9.654;2024-01-11T14:37:41;38.77;;;16.90;;
20884;SDS011;10602;48.000;9.654;2024-01-11T14:40:10;37.27;;;19.13;;
20884;SDS011;10602;48.000;9.654;2024-01-11T14:42:38;36.57;;;16.70;;
20884;SDS011;10602;48.000;9.654;2024-01-11T14:45:06;40.40;;;18.23;;
20884;SDS011;10602;48.000;9.654;2024-01-11T14:47:35;42.20;;;19.13;;
20884;SDS011;10602;48.000;9.654;2024-01-11T14:50:03;35.60;;;16.90;;
20884;SDS011;10602;48.000;9.654;2024-01-11T14:52:31;37.67;;;16.30;;
20884;SDS011;10602;48.000;9.654;2024-01-11T14:55:00;33.93;;;16.73;;
20884;SDS011;10602;48.000;9.654;2024-01-11T14:57:28;38.20;;;17.43;;
20884;SDS011;10602;48.000;9.654;2024-01-11T14:59:56;34.63;;;16.77;;
20884;SDS011;10602;48.000;9.654;2024-01-11T15:02:24;42.40;;;18.47;;
20884;SDS011;10602;48.000;9.654;2024-01-11T15:04:54;39.53;;;18.83;;
20884;SDS011;10602;48.000;9.654;2024-01-11T15:09:57;38.80;;;17.40;;
20884;SDS011;10602;48.000;9.654;2024-01-11T15:12:27;35.30;;;17.83;;
20884;SDS011;10602;48.000;9.654;2024-01-11T15:14:55;42.00;;;17.50;;
20884;SDS011;10602;48.000;9.654;2024-01-11T15:17:26;38.07;;;16.30;;
20884;SDS011;10602;48.000;9.654;2024-01-11T15:20:06;38.80;;;18.43;;
20884;SDS011;10602;48.000;9.654;2024-01-11T15:22:40;38.50;;;18.67;;
20884;SDS011;10602;48.000;9.654;2024-01-11T15:25:08;45.93;;;19.83;;
20884;SDS011;10602;48.000;9.654;2024-01-11T15:27:38;46.23;;;20.03;;
20884;SDS011;10602;48.000;9.654;2024-01-11T15:30:06;44.30;;;19.93;;
20884;SDS011;10602;48.000;9.654;2024-01-11T15:32:38;43.93;;;19.37;;
20884;SDS011;10602;48.000;9.654;2024-01-11T15:35:07;46.03;;;19.33;;
20884;SDS011;10602;48.000;9.654;2024-01-11T15:37:37;48.00;;;23.50;;
20884;SDS011;10602;48.000;9.654;2024-01-11T15:40:05;43.47;;;20.70;;
20884;SDS011;10602;48.000;9.654;2024-01-11T15:42:35;48.93;;;20.80;;
20884;SDS011;10602;48.000;9.654;2024-01-11T15:45:05;35.67;;;16.30;;
20884;SDS011;10602;48.000;9.654;2024-01-11T15:47:37;33.53;;;16.07;;
20884;SDS011;10602;48.000;9.654;2024-01-11T15:50:07;37.83;;;17.80;;
20884;SDS011;10602;48.000;9.654;2024-01-11T15:55:26;42.57;;;18.50;;
20884;SDS011;10602;48.000;9.654;2024-01-11T15:58:23;40.53;;;18.47;;
20884;SDS011;10602;48.000;9.654;2024-01-11T16:00:39;44.37;;;19.40;;
20884;SDS011;10602;48.000;9.654;2024-01-11T16:03:47;48.60;;;21.60;;
20884;SDS011;10602;48.000;9.654;2024-01-11T16:06:09;48.63;;;21.87;;
20884;SDS011;10602;48.000;9.654;2024-01-11T16:08:39;54.13;;;21.10;;
20884;SDS011;10602;48.000;9.654;2024-01-11T16:14:05;43.53;;;19.87;;
20884;SDS011;10602;48.000;9.654;2024-01-11T16:16:35;42.30;;;18.77;;
20884;SDS011;10602;48.000;9.654;2024-01-11T16:19:09;41.53;;;19.10;;
20884;SDS011;10602;48.000;9.654;2024-01-11T16:21:39;42.53;;;19.00;;
20884;SDS011;10602;48.000;9.654;2024-01-11T16:24:09;39.77;;;19.37;;
20884;SDS011;10602;48.000;9.654;2024-01-11T16:26:38;45.97;;;20.47;;
20884;SDS011;10602;48.000;9.654;2024-01-11T16:29:07;48.23;;;20.40;;
20884;SDS011;10602;48.000;9.654;2024-01-11T16:31:36;42.80;;;20.43;;
20884;SDS011;10602;48.000;9.654;2024-01-11T16:34:13;45.90;;;20.57;;
20884;SDS011;10602;48.000;9.654;2024-01-11T16:36:47;44.00;;;19.77;;
20884;SDS011;10602;48.000;9.654;2024-01-11T16:39:24;43.33;;;17.83;;
20884;SDS011;10602;48.000;9.654;2024-01-11T16:42:00;36.77;;;18.33;;
20884;SDS011;10602;48.000;9.654;2024-01-11T16:44:30;42.63;;;19.83;;
20884;SDS011;10602;48.000;9.654;2024-01-11T22:12:09;51.63;;;21.37;;
